KIXD

New Century Aircenter Airport

Olathe, Kansas, USA
METAR KIXD 140453Z AUTO 00000KT 10SM CLR M07/M09 A3052 RMK AO2 SLP351 T10671089
Observed Flight Rules
Nov-14 @ 04:53 UTC (25 minutes ago) Visual Flight Rules
Visibility Clouds
10 miles
  • Clear skies
Temperatures Readings
Current -7°C / 19°F
Dewpoint -9°C / 16°F
Humidity 86%
Altimeter 30.52" Hg
Pressure 1035.1 hPa
Elevation 342
METAR KIXD 140453Z AUTO 00000KT 10SM CLR M07/M09 A3052 RMK AO2 SLP351 T10671089
Observed Flight Rules
Nov-14 @ 04:53 UTC
(25 minutes ago)
VFR
Clouds
  • Clear skies
Temperature Dewpoint
-7°C / 19°F -9°C / 16°F
Humidity Altimeter Pressure
86% 30.52" Hg 1035.1 hPa